Time;durP1;ratioP1;P1;durP2;ratioP2;P2;SDS_P1;SDS_P2;PMS_P1;PMS_P2;Temp;Humidity;BMP_temperature;BMP_pressure;BME280_temperature;BME280_humidity;BME280_pressure;Samples;Min_cycle;Max_cycle;Signal;HPM_P1;HPM_P2
2020/12/01 00:00:33;;;;;;;19.90;11.48;;;2.10;90.70;;;;;;5054478;28;20031;-79
2020/12/01 00:02:58;;;;;;;21.58;12.07;;;2.00;90.70;;;;;;5053444;28;20056;-80
2020/12/01 00:05:25;;;;;;;17.67;9.88;;;2.10;90.70;;;;;;5054439;28;20025;-80
2020/12/01 00:07:51;;;;;;;17.92;10.93;;;2.10;90.70;;;;;;5054508;28;20021;-81
2020/12/01 00:10:20;;;;;;;18.63;11.48;;;2.10;90.70;;;;;;5053704;28;20032;-79
2020/12/01 00:12:48;;;;;;;18.05;10.52;;;2.10;90.70;;;;;;5055064;28;20037;-80
2020/12/01 00:15:17;;;;;;;16.25;10.18;;;2.10;90.70;;;;;;5054739;28;20017;-79
2020/12/01 00:17:44;;;;;;;18.63;11.07;;;2.10;90.60;;;;;;5054656;28;20031;-80
2020/12/01 00:20:11;;;;;;;18.85;11.98;;;2.10;90.60;;;;;;5054574;28;20045;-80
2020/12/01 00:22:37;;;;;;;18.27;10.70;;;2.10;90.60;;;;;;5054191;28;20021;-79
2020/12/01 00:25:05;;;;;;;36.42;18.63;;;2.10;90.60;;;;;;5053936;28;20029;-79
2020/12/01 00:27:31;;;;;;;21.70;12.43;;;2.10;90.70;;;;;;5055084;28;20013;-78
2020/12/01 00:29:57;;;;;;;18.20;10.73;;;2.00;90.60;;;;;;5054807;28;20071;-78
2020/12/01 00:32:22;;;;;;;16.02;10.32;;;2.10;90.60;;;;;;5054683;28;20104;-80
2020/12/01 00:34:48;;;;;;;14.45;10.52;;;2.00;90.60;;;;;;5054568;28;20656;-78
2020/12/01 00:37:14;;;;;;;19.25;11.82;;;2.10;90.70;;;;;;5054389;28;20096;-78
2020/12/01 00:39:40;;;;;;;21.15;11.90;;;2.10;90.70;;;;;;5053614;28;20029;-78
2020/12/01 00:42:05;;;;;;;20.42;11.15;;;2.10;90.70;;;;;;5054193;28;20435;-79
2020/12/01 00:44:31;;;;;;;18.45;12.15;;;2.10;90.70;;;;;;5054687;28;20017;-78
2020/12/01 00:46:57;;;;;;;19.98;11.45;;;2.10;90.60;;;;;;5054148;28;20017;-79
2020/12/01 00:49:22;;;;;;;21.63;12.77;;;2.10;90.60;;;;;;5054303;28;20360;-79
2020/12/01 00:51:49;;;;;;;20.35;12.00;;;2.10;90.60;;;;;;5054851;28;20464;-81
2020/12/01 00:54:17;;;;;;;16.50;10.48;;;2.10;90.60;;;;;;5054250;28;20379;-79
2020/12/01 00:56:42;;;;;;;17.95;12.32;;;2.10;90.60;;;;;;5053571;28;20075;-81
2020/12/01 00:59:09;;;;;;;21.27;12.32;;;2.10;90.60;;;;;;5054628;28;20573;-80
2020/12/01 01:01:35;;;;;;;18.13;11.77;;;2.10;90.50;;;;;;5054802;28;20104;-80
2020/12/01 01:04:00;;;;;;;22.65;13.25;;;2.10;90.50;;;;;;5058118;28;20032;-79
2020/12/01 01:06:26;;;;;;;24.67;12.55;;;2.10;90.50;;;;;;5062865;28;20021;-78
2020/12/01 01:08:52;;;;;;;26.00;12.68;;;2.10;90.50;;;;;;5058323;28;20036;-79
2020/12/01 01:11:26;;;;;;;24.40;13.65;;;2.10;90.50;;;;;;5054584;28;20437;-79
2020/12/01 01:13:52;;;;;;;19.02;11.20;;;2.10;90.60;;;;;;5053986;28;20025;-79
2020/12/01 01:16:17;;;;;;;17.83;11.85;;;2.10;90.60;;;;;;5052304;28;20082;-80
2020/12/01 01:18:43;;;;;;;20.10;12.20;;;2.10;90.60;;;;;;5054236;28;20060;-79
2020/12/01 01:21:09;;;;;;;22.08;12.02;;;2.10;90.60;;;;;;5052883;28;20032;-79
2020/12/01 01:23:35;;;;;;;19.25;10.50;;;2.10;90.60;;;;;;5052321;28;20036;-78
2020/12/01 01:26:01;;;;;;;18.90;10.52;;;2.10;90.60;;;;;;5053747;28;20053;-79
2020/12/01 01:28:26;;;;;;;21.58;12.23;;;2.10;90.50;;;;;;5052896;28;20408;-80
2020/12/01 01:30:52;;;;;;;22.35;12.43;;;2.10;90.50;;;;;;5054039;28;20468;-79
2020/12/01 01:33:18;;;;;;;19.42;11.27;;;2.00;90.50;;;;;;5053689;28;20028;-80
2020/12/01 01:35:43;;;;;;;17.50;11.75;;;2.00;90.50;;;;;;5053860;28;20033;-79
2020/12/01 01:38:09;;;;;;;19.65;11.80;;;2.10;90.50;;;;;;5053481;28;20068;-80
2020/12/01 01:40:35;;;;;;;30.40;15.52;;;2.10;90.50;;;;;;5053719;28;20383;-80
2020/12/01 01:43:02;;;;;;;33.10;16.48;;;2.10;90.60;;;;;;5053472;28;20061;-80
2020/12/01 01:45:46;;;;;;;35.72;14.68;;;2.10;90.50;;;;;;5054079;28;20467;-81
2020/12/01 01:48:35;;;;;;;22.02;12.25;;;2.10;90.50;;;;;;5051532;28;20116;-80
2020/12/01 01:51:14;;;;;;;17.63;11.13;;;2.10;90.50;;;;;;5048496;28;20037;-81
2020/12/01 01:53:45;;;;;;;18.30;11.95;;;2.10;90.50;;;;;;5053376;28;20044;-82
2020/12/01 01:56:16;;;;;;;21.95;12.30;;;2.00;90.50;;;;;;5053444;28;20033;-80
2020/12/01 01:58:44;;;;;;;27.88;14.98;;;2.10;90.50;;;;;;5052198;28;20055;-80
2020/12/01 02:01:13;;;;;;;48.22;19.05;;;2.10;90.50;;;;;;5051872;28;20029;-80
2020/12/01 02:03:40;;;;;;;51.95;20.70;;;2.10;90.50;;;;;;5053253;28;20029;-80
2020/12/01 02:06:20;;;;;;;52.78;22.52;;;2.10;90.50;;;;;;5052044;28;20162;-78
2020/12/01 02:08:51;;;;;;;33.55;17.73;;;2.00;90.40;;;;;;5053087;28;20025;-79
2020/12/01 02:11:19;;;;;;;30.77;15.55;;;2.00;90.40;;;;;;5051392;28;20029;-78
2020/12/01 02:13:55;;;;;;;46.38;19.55;;;2.00;90.40;;;;;;5051353;28;20048;-78
2020/12/01 02:16:21;;;;;;;53.72;21.13;;;2.00;90.40;;;;;;5051792;28;20438;-81
2020/12/01 02:18:47;;;;;;;31.58;13.65;;;2.00;90.50;;;;;;5052190;28;20056;-81
2020/12/01 02:21:33;;;;;;;35.72;13.82;;;2.00;90.40;;;;;;5057438;28;20033;-81
2020/12/01 02:24:00;;;;;;;32.08;14.27;;;2.00;90.50;;;;;;5056407;28;20033;-79
2020/12/01 02:26:27;;;;;;;21.00;11.23;;;2.00;90.50;;;;;;5056618;28;20029;-79
2020/12/01 02:28:53;;;;;;;28.15;15.25;;;2.00;90.50;;;;;;5056814;28;20037;-79
2020/12/01 02:31:19;;;;;;;20.27;11.70;;;2.00;90.50;;;;;;5055291;28;20025;-81
2020/12/01 02:33:44;;;;;;;22.42;12.60;;;2.00;90.50;;;;;;5055737;28;20028;-79
2020/12/01 02:36:10;;;;;;;30.63;14.90;;;2.10;90.50;;;;;;5056840;28;20033;-79
2020/12/01 02:38:36;;;;;;;26.88;13.15;;;2.00;90.50;;;;;;5056317;28;20430;-78
2020/12/01 02:41:02;;;;;;;22.67;13.00;;;2.00;90.50;;;;;;5055139;28;20043;-80
2020/12/01 02:43:28;;;;;;;27.02;13.77;;;2.00;90.50;;;;;;5056214;28;20098;-82
2020/12/01 02:45:53;;;;;;;21.02;12.50;;;2.10;90.40;;;;;;5053415;28;20025;-80
2020/12/01 02:48:19;;;;;;;24.80;13.32;;;2.00;90.40;;;;;;5055873;28;20028;-81
2020/12/01 02:50:45;;;;;;;35.70;17.75;;;2.00;90.50;;;;;;5055544;28;20025;-80
2020/12/01 02:53:11;;;;;;;22.48;12.15;;;2.10;90.50;;;;;;5055350;28;20438;-80
2020/12/01 02:55:36;;;;;;;18.90;10.77;;;2.00;90.50;;;;;;5055184;28;20039;-80
2020/12/01 02:58:02;;;;;;;16.17;10.10;;;2.00;90.50;;;;;;5054687;28;20025;-81
2020/12/01 03:00:28;;;;;;;17.58;10.20;;;2.10;90.50;;;;;;5053566;28;20044;-81
2020/12/01 03:02:54;;;;;;;15.95;9.82;;;2.10;90.40;;;;;;5053675;28;20032;-82
2020/12/01 03:05:19;;;;;;;15.95;10.27;;;2.00;90.40;;;;;;5055081;28;20024;-80
2020/12/01 03:07:45;;;;;;;15.85;10.27;;;2.10;90.50;;;;;;5053871;28;20771;-81
2020/12/01 03:10:11;;;;;;;14.35;9.57;;;2.00;90.40;;;;;;5055219;28;20036;-82
2020/12/01 03:12:36;;;;;;;17.15;10.05;;;2.00;90.40;;;;;;5055056;28;20029;-81
2020/12/01 03:15:08;;;;;;;16.05;10.50;;;2.00;90.40;;;;;;5053583;28;20048;-81
2020/12/01 03:17:34;;;;;;;18.90;11.35;;;2.00;90.30;;;;;;5052451;28;20475;-81
2020/12/01 03:20:02;;;;;;;18.23;11.50;;;2.00;90.40;;;;;;5054279;28;20035;-80
2020/12/01 03:22:27;;;;;;;17.75;11.25;;;2.00;90.40;;;;;;5054408;28;20040;-82
2020/12/01 03:24:53;;;;;;;21.08;12.02;;;2.00;90.40;;;;;;5054682;28;20013;-83
2020/12/01 03:27:19;;;;;;;20.70;12.35;;;2.00;90.40;;;;;;5054396;28;20075;-83
2020/12/01 03:29:44;;;;;;;18.20;11.23;;;2.00;90.50;;;;;;5055580;28;20021;-84
2020/12/01 03:32:10;;;;;;;18.27;11.60;;;2.00;90.50;;;;;;5058821;28;20021;-83
2020/12/01 03:34:36;;;;;;;24.90;12.95;;;2.10;90.50;;;;;;5069268;28;20033;-84
2020/12/01 03:37:01;;;;;;;19.92;10.88;;;2.10;90.50;;;;;;5057072;28;20086;-82
2020/12/01 03:39:27;;;;;;;26.20;12.63;;;2.10;90.50;;;;;;5054497;28;20340;-83
2020/12/01 03:41:53;;;;;;;23.02;10.82;;;2.10;90.50;;;;;;5054377;28;20024;-83
2020/12/01 03:44:19;;;;;;;23.95;11.48;;;2.10;90.50;;;;;;5055507;28;20017;-83
2020/12/01 03:46:44;;;;;;;28.90;12.93;;;2.10;90.50;;;;;;5055788;28;20058;-82
2020/12/01 03:49:10;;;;;;;23.45;12.38;;;2.10;90.50;;;;;;5055744;28;20028;-84
2020/12/01 03:51:36;;;;;;;22.85;12.45;;;2.10;90.40;;;;;;5049205;28;20036;-82
2020/12/01 03:54:01;;;;;;;24.45;13.18;;;2.10;90.40;;;;;;5044673;28;20454;-82
2020/12/01 03:56:27;;;;;;;26.58;15.20;;;2.10;90.40;;;;;;5034963;28;20021;-83
2020/12/01 03:58:53;;;;;;;23.08;12.32;;;2.10;90.40;;;;;;5035164;28;20055;-83
2020/12/01 04:01:18;;;;;;;22.25;12.60;;;2.10;90.40;;;;;;5035376;28;20902;-82
2020/12/01 04:03:44;;;;;;;25.58;13.65;;;2.10;90.40;;;;;;5034376;28;20022;-83
2020/12/01 04:06:11;;;;;;;32.10;14.80;;;2.10;90.40;;;;;;5035568;28;20032;-83
2020/12/01 04:08:37;;;;;;;35.88;17.08;;;2.10;90.40;;;;;;5033689;28;20498;-82
2020/12/01 04:11:04;;;;;;;31.33;15.60;;;2.10;90.40;;;;;;5035268;28;20018;-83
2020/12/01 04:13:31;;;;;;;27.70;13.15;;;2.20;90.40;;;;;;5035453;28;20021;-83
2020/12/01 04:15:57;;;;;;;19.65;11.63;;;2.20;90.40;;;;;;5034816;28;20026;-84
2020/12/01 04:18:23;;;;;;;19.67;11.80;;;2.20;90.40;;;;;;5036103;28;20029;-83
2020/12/01 04:20:48;;;;;;;17.15;11.50;;;2.10;90.30;;;;;;5034938;28;20464;-78
2020/12/01 04:23:14;;;;;;;17.52;11.07;;;2.20;90.30;;;;;;5034680;28;20018;-84
2020/12/01 04:25:40;;;;;;;17.88;11.48;;;2.10;90.30;;;;;;5034339;28;20029;-84
2020/12/01 04:28:06;;;;;;;25.13;13.30;;;2.10;90.30;;;;;;5037375;28;20361;-83
2020/12/01 04:30:32;;;;;;;21.23;13.93;;;2.10;90.30;;;;;;5036712;28;20052;-82
2020/12/01 04:32:58;;;;;;;20.92;12.65;;;2.10;90.30;;;;;;5045786;28;20041;-81
2020/12/01 04:35:26;;;;;;;18.30;11.13;;;2.10;90.30;;;;;;5048320;28;20507;-76
2020/12/01 04:37:54;;;;;;;18.50;12.05;;;2.10;90.40;;;;;;5049184;28;20093;-77
2020/12/01 04:40:25;;;;;;;20.40;13.77;;;2.10;90.40;;;;;;5053542;28;20101;-78
2020/12/01 04:43:00;;;;;;;20.38;14.15;;;2.10;90.30;;;;;;5052563;28;20022;-79
2020/12/01 04:45:27;;;;;;;16.25;11.52;;;2.20;90.30;;;;;;5047498;28;20084;-78
2020/12/01 04:47:55;;;;;;;16.40;11.05;;;2.20;90.30;;;;;;5034697;28;20025;-79
2020/12/01 04:50:50;;;;;;;15.48;10.48;;;2.20;90.30;;;;;;5033350;28;20027;-79
2020/12/01 04:53:37;;;;;;;18.60;11.43;;;2.10;90.20;;;;;;5033951;28;20084;-79
2020/12/01 04:56:17;;;;;;;17.83;11.40;;;2.10;90.20;;;;;;5033606;28;20475;-79
2020/12/01 04:58:56;;;;;;;18.58;12.52;;;2.10;90.20;;;;;;5033337;28;20154;-79
2020/12/01 05:01:49;;;;;;;24.30;14.52;;;2.10;90.20;;;;;;5031657;28;20029;-79
2020/12/01 05:04:44;;;;;;;20.30;12.65;;;2.10;90.20;;;;;;5032665;28;20032;-79
2020/12/01 05:07:37;;;;;;;33.58;19.15;;;2.00;90.20;;;;;;5031571;28;20056;-78
2020/12/01 05:10:10;;;;;;;25.02;13.23;;;2.00;90.30;;;;;;5032581;28;20022;-78
2020/12/01 05:12:39;;;;;;;20.92;11.75;;;2.00;90.20;;;;;;5031244;28;20052;-79
2020/12/01 05:15:20;;;;;;;17.38;11.23;;;2.00;90.30;;;;;;5032236;28;20032;-77
2020/12/01 05:18:33;;;;;;;27.63;15.32;;;2.00;90.40;;;;;;5031925;28;20032;-76
2020/12/01 05:21:01;;;;;;;25.80;12.90;;;2.00;90.40;;;;;;5030407;28;20132;-77
2020/12/01 05:23:29;;;;;;;19.90;11.65;;;2.00;90.60;;;;;;5032084;28;20029;-78
2020/12/01 05:26:04;;;;;;;25.70;14.85;;;2.00;90.40;;;;;;5034981;28;20028;-78
2020/12/01 05:28:29;;;;;;;40.80;27.00;;;2.00;90.40;;;;;;5047624;28;20037;-77
2020/12/01 05:31:05;;;;;;;24.70;15.45;;;2.00;90.50;;;;;;5036577;28;20032;-78
2020/12/01 05:33:32;;;;;;;32.00;19.42;;;2.00;90.40;;;;;;5031882;28;20101;-77
2020/12/01 05:36:16;;;;;;;21.38;13.93;;;2.00;90.50;;;;;;5036271;28;20075;-77
2020/12/01 05:38:42;;;;;;;21.90;13.00;;;2.00;90.70;;;;;;5051972;28;20467;-77
2020/12/01 05:41:25;;;;;;;20.50;13.57;;;2.00;90.50;;;;;;5051373;28;20025;-79
2020/12/01 05:43:57;;;;;;;22.15;15.57;;;2.00;90.50;;;;;;5051146;28;20025;-78
2020/12/01 05:46:41;;;;;;;20.15;13.25;;;2.00;90.50;;;;;;5050452;28;20025;-77
2020/12/01 05:49:22;;;;;;;30.05;23.75;;;2.00;90.60;;;;;;5052268;28;20033;-87
2020/12/01 05:51:53;;;;;;;30.83;21.35;;;2.00;90.60;;;;;;5052787;28;20032;-92
2020/12/01 05:54:39;;;;;;;29.90;19.23;;;2.00;90.60;;;;;;5056807;28;20075;-87
2020/12/01 05:57:19;;;;;;;32.15;20.70;;;1.90;90.50;;;;;;5066751;28;20025;-83
2020/12/01 05:59:57;;;;;;;33.10;20.48;;;1.90;90.50;;;;;;5055071;28;20079;-80
2020/12/01 06:02:50;;;;;;;48.35;25.10;;;1.90;90.50;;;;;;5052926;28;20028;-80
2020/12/01 06:05:20;;;;;;;65.82;32.95;;;1.90;90.50;;;;;;5041235;28;20033;-79
2020/12/01 06:07:48;;;;;;;71.45;31.90;;;1.90;90.80;;;;;;5052136;28;20032;-82
2020/12/01 06:10:47;;;;;;;55.72;27.83;;;1.90;90.50;;;;;;5052217;28;20344;-86
2020/12/01 06:13:35;;;;;;;66.97;32.25;;;1.80;90.60;;;;;;5051745;28;20041;-86
2020/12/01 06:16:15;;;;;;;47.33;25.73;;;1.90;90.70;;;;;;5052578;28;20029;-81
2020/12/01 06:18:53;;;;;;;31.88;18.27;;;1.90;90.70;;;;;;5052820;28;20052;-85
2020/12/01 06:21:50;;;;;;;27.50;17.13;;;1.90;90.70;;;;;;5052386;28;20032;-85
2020/12/01 06:24:45;;;;;;;24.98;16.08;;;1.90;90.70;;;;;;5051045;28;20050;-77
2020/12/01 06:27:22;;;;;;;18.27;12.27;;;1.90;90.80;;;;;;5032397;28;20420;-84
2020/12/01 06:30:03;;;;;;;33.22;20.92;;;1.90;90.80;;;;;;5052431;28;20115;-83
2020/12/01 06:32:58;;;;;;;24.88;15.55;;;2.00;90.80;;;;;;5052617;28;20083;-82
2020/12/01 06:35:34;;;;;;;46.15;24.10;;;2.00;90.80;;;;;;5045108;28;20120;-83
2020/12/01 06:38:26;;;;;;;61.70;31.05;;;2.00;90.80;;;;;;5050642;28;20036;-83
2020/12/01 06:41:01;;;;;;;62.13;29.52;;;2.00;90.80;;;;;;5051722;28;20020;-80
2020/12/01 06:43:40;;;;;;;68.25;33.53;;;2.00;90.80;;;;;;5051456;28;20478;-82
2020/12/01 06:46:45;;;;;;;66.55;35.58;;;2.10;90.80;;;;;;5051519;28;20422;-82
2020/12/01 06:49:18;;;;;;;32.17;19.02;;;2.10;90.80;;;;;;5051192;28;20021;-81
2020/12/01 06:51:49;;;;;;;33.22;17.65;;;2.10;90.80;;;;;;5051493;28;20021;-81
2020/12/01 06:54:16;;;;;;;31.40;18.10;;;2.10;90.80;;;;;;5051751;28;20025;-81
2020/12/01 06:56:55;;;;;;;37.22;20.15;;;2.10;90.80;;;;;;5051691;28;20279;-81
2020/12/01 06:59:20;;;;;;;40.90;23.67;;;2.10;90.80;;;;;;5049960;28;20399;-83
2020/12/01 07:01:46;;;;;;;38.58;23.27;;;2.20;90.90;;;;;;5051240;28;20029;-82
2020/12/01 07:04:25;;;;;;;36.28;19.55;;;2.20;90.90;;;;;;5051261;28;20032;-81
2020/12/01 07:07:00;;;;;;;50.47;22.63;;;2.20;90.90;;;;;;5052574;28;20032;-82
2020/12/01 07:09:31;;;;;;;35.60;18.98;;;2.30;90.90;;;;;;5056534;28;20398;-81
2020/12/01 07:12:43;;;;;;;27.33;16.38;;;2.30;90.90;;;;;;5055791;28;20021;-81
2020/12/01 07:15:49;;;;;;;34.33;18.67;;;2.30;90.90;;;;;;5045238;28;20189;-83
2020/12/01 07:18:26;;;;;;;35.65;18.38;;;2.40;90.90;;;;;;5052860;28;20037;-82
2020/12/01 07:21:11;;;;;;;52.17;25.30;;;2.40;90.90;;;;;;5054368;28;20037;-82
2020/12/01 07:23:58;;;;;;;73.07;30.15;;;2.50;90.90;;;;;;5054437;28;20161;-78
2020/12/01 07:26:47;;;;;;;77.78;30.52;;;2.50;90.80;;;;;;5056289;28;20446;-79
2020/12/01 07:29:40;;;;;;;76.85;29.48;;;2.50;90.80;;;;;;5057351;28;20795;-78
2020/12/01 07:32:20;;;;;;;71.22;33.53;;;2.50;90.80;;;;;;5054510;28;20112;-77
2020/12/01 07:34:47;;;;;;;77.55;35.90;;;2.60;91.10;;;;;;5054619;28;20079;-78
2020/12/01 07:37:29;;;;;;;61.67;32.15;;;2.60;90.80;;;;;;5054363;28;20379;-77
2020/12/01 07:39:57;;;;;;;51.55;28.33;;;2.60;90.90;;;;;;5055004;28;20041;-76
2020/12/01 07:42:26;;;;;;;45.70;23.27;;;2.70;90.80;;;;;;5055729;28;20021;-77
2020/12/01 07:44:51;;;;;;;42.40;24.67;;;2.70;90.80;;;;;;5054882;28;20082;-77
2020/12/01 07:47:21;;;;;;;51.08;23.63;;;2.70;90.80;;;;;;5055007;28;20029;-78
2020/12/01 07:50:22;;;;;;;48.70;23.95;;;2.80;90.80;;;;;;5054849;28;20033;-78
2020/12/01 07:53:07;;;;;;;60.30;26.95;;;2.80;90.80;;;;;;5043436;28;20040;-78
2020/12/01 07:55:58;;;;;;;49.75;26.50;;;2.80;90.70;;;;;;5055636;28;20081;-79
2020/12/01 07:58:26;;;;;;;48.25;23.20;;;2.90;90.70;;;;;;5055344;28;20100;-80
2020/12/01 08:00:55;;;;;;;41.35;21.55;;;2.80;90.60;;;;;;5052443;28;20028;-79
2020/12/01 08:03:26;;;;;;;39.33;22.75;;;2.80;90.60;;;;;;5054917;28;20075;-79
2020/12/01 08:05:59;;;;;;;38.53;19.58;;;2.90;90.70;;;;;;5057791;28;20017;-77
2020/12/01 08:08:30;;;;;;;44.78;24.40;;;2.90;90.60;;;;;;5054345;28;20025;-79
2020/12/01 08:10:57;;;;;;;41.65;20.85;;;2.90;90.50;;;;;;5055035;28;20447;-77
2020/12/01 08:13:22;;;;;;;55.20;28.25;;;2.90;90.60;;;;;;5055529;28;20383;-78
2020/12/01 08:16:01;;;;;;;44.33;22.58;;;2.90;90.50;;;;;;5054776;28;20032;-78
2020/12/01 08:18:29;;;;;;;48.53;24.95;;;2.90;90.50;;;;;;5054941;28;20083;-78
2020/12/01 08:20:56;;;;;;;55.92;28.00;;;2.90;90.50;;;;;;5054827;28;20074;-78
2020/12/01 08:23:26;;;;;;;69.38;28.38;;;3.00;90.60;;;;;;5053172;28;20071;-78
2020/12/01 08:26:22;;;;;;;65.18;30.30;;;3.00;90.60;;;;;;5051662;28;20021;-78
2020/12/01 08:29:01;;;;;;;63.22;28.98;;;3.00;90.60;;;;;;5052020;28;20035;-78
2020/12/01 08:31:57;;;;;;;48.00;26.65;;;3.10;90.60;;;;;;5053328;28;20064;-80
2020/12/01 08:34:33;;;;;;;44.22;22.30;;;3.10;90.60;;;;;;5053436;28;20055;-78
2020/12/01 08:37:18;;;;;;;44.88;23.13;;;3.20;90.60;;;;;;5052995;28;20017;-78
2020/12/01 08:39:54;;;;;;;41.53;21.48;;;3.20;90.50;;;;;;5051371;28;20086;-78
2020/12/01 08:42:51;;;;;;;38.75;20.20;;;3.20;90.40;;;;;;5052725;28;20013;-77
2020/12/01 08:45:35;;;;;;;38.63;21.45;;;3.10;90.30;;;;;;5052520;28;20371;-77
2020/12/01 08:48:05;;;;;;;32.85;16.95;;;3.20;90.40;;;;;;5050976;28;20032;-77
2020/12/01 08:50:37;;;;;;;33.70;19.42;;;3.20;90.30;;;;;;5052687;28;20021;-78
2020/12/01 08:53:16;;;;;;;35.15;19.27;;;3.20;90.30;;;;;;5059230;28;20035;-78
2020/12/01 08:55:42;;;;;;;40.72;22.83;;;3.20;90.30;;;;;;5053487;28;20041;-77
2020/12/01 08:58:18;;;;;;;36.70;20.80;;;3.20;90.40;;;;;;5055232;28;20051;-79
2020/12/01 09:01:07;;;;;;;34.28;19.73;;;3.30;90.40;;;;;;5053370;28;20124;-76
2020/12/01 09:03:35;;;;;;;41.42;23.15;;;3.30;90.50;;;;;;5052381;28;20486;-77
2020/12/01 09:06:01;;;;;;;33.92;19.17;;;3.40;90.50;;;;;;5052092;28;20044;-78
2020/12/01 09:19:33;;;;;;;28.15;15.95;;;3.50;90.10;;;;;;5052055;28;20090;-77
2020/12/01 09:22:08;;;;;;;32.70;18.08;;;3.50;90.20;;;;;;5051772;28;20116;-78
2020/12/01 09:24:34;;;;;;;28.73;18.08;;;3.40;90.10;;;;;;5050361;28;20059;-78
2020/12/01 09:27:12;;;;;;;50.78;29.88;;;3.40;90.10;;;;;;5051822;28;20029;-79
2020/12/01 09:29:43;;;;;;;60.22;34.13;;;3.40;90.10;;;;;;5051509;28;20029;-77
2020/12/01 09:32:23;;;;;;;38.72;23.02;;;3.50;90.20;;;;;;5051360;28;20040;-78
2020/12/01 09:34:49;;;;;;;43.58;25.85;;;3.50;90.20;;;;;;5051569;28;20025;-78
2020/12/01 09:37:16;;;;;;;44.28;26.50;;;3.50;90.20;;;;;;5051355;28;20078;-76
2020/12/01 09:39:42;;;;;;;41.45;22.30;;;3.60;90.50;;;;;;5051390;28;20025;-78
2020/12/01 09:42:18;;;;;;;51.30;26.25;;;3.60;90.20;;;;;;5051514;28;20032;-77
2020/12/01 09:47:54;;;;;;;54.40;27.63;;;3.60;90.10;;;;;;5051701;28;20108;-78
2020/12/01 09:50:13;;;;;;;40.70;24.67;;;3.60;89.90;;;;;;5050276;28;20071;-78
2020/12/01 09:52:57;;;;;;;41.45;26.00;;;3.50;90.00;;;;;;5051408;28;20055;-78
2020/12/01 09:55:42;;;;;;;41.00;23.70;;;3.60;90.00;;;;;;5049957;28;20025;-78
2020/12/01 09:58:32;;;;;;;51.72;27.73;;;3.60;90.10;;;;;;5049777;28;20029;-76
2020/12/01 10:09:13;;;;;;;68.13;36.67;;;3.70;90.10;;;;;;5050963;28;20118;-80
2020/12/01 10:17:49;;;;;;;43.38;23.20;;;3.70;90.00;;;;;;5048677;28;20025;-78
2020/12/01 10:35:29;;;;;;;32.92;17.48;;;3.70;89.90;;;;;;5051230;28;20036;-79
2020/12/01 10:38:00;;;;;;;40.60;21.90;;;3.70;89.80;;;;;;5050923;28;20017;-78
2020/12/01 10:40:27;;;;;;;42.80;24.40;;;3.70;89.80;;;;;;5050777;28;20374;-78
2020/12/01 10:42:54;;;;;;;47.83;26.00;;;3.70;89.70;;;;;;5053841;28;20021;-79
2020/12/01 10:45:21;;;;;;;45.92;23.48;;;3.70;89.70;;;;;;5054718;28;20063;-79
2020/12/01 10:47:47;;;;;;;45.88;23.67;;;3.60;89.60;;;;;;5054902;28;20075;-78
2020/12/01 10:50:15;;;;;;;43.78;23.85;;;3.70;89.70;;;;;;5055016;28;20029;-77
2020/12/01 10:52:41;;;;;;;50.22;25.33;;;3.60;89.70;;;;;;5053430;28;20458;-78
2020/12/01 10:55:08;;;;;;;53.42;25.75;;;3.70;89.90;;;;;;5054781;28;20034;-79
2020/12/01 10:57:35;;;;;;;58.10;26.45;;;3.70;89.90;;;;;;5054878;28;20020;-78
2020/12/01 11:00:05;;;;;;;51.45;23.83;;;3.60;89.70;;;;;;5054291;28;20044;-78
2020/12/01 11:02:31;;;;;;;47.90;23.35;;;3.70;89.80;;;;;;5054079;28;20021;-77
2020/12/01 11:04:57;;;;;;;44.55;21.65;;;3.60;89.70;;;;;;5053501;28;20100;-79
2020/12/01 11:07:22;;;;;;;49.00;24.35;;;3.60;89.80;;;;;;5054566;28;20070;-80
2020/12/01 11:09:48;;;;;;;54.53;29.15;;;3.60;89.80;;;;;;5054137;28;20394;-78
2020/12/01 11:12:14;;;;;;;53.05;28.15;;;3.70;89.90;;;;;;5054848;28;20090;-82
2020/12/01 11:14:39;;;;;;;56.58;31.08;;;3.70;90.00;;;;;;5054243;28;20029;-77
2020/12/01 11:17:05;;;;;;;59.72;33.58;;;3.70;90.00;;;;;;5056083;28;20036;-77
2020/12/01 11:19:31;;;;;;;61.30;34.78;;;3.70;90.10;;;;;;5053950;28;20475;-76
2020/12/01 11:21:56;;;;;;;54.35;32.78;;;3.80;90.10;;;;;;5053750;28;20139;-77
2020/12/01 11:24:22;;;;;;;59.28;30.55;;;3.70;90.00;;;;;;5053707;28;20056;-75
2020/12/01 11:26:48;;;;;;;65.85;40.08;;;3.70;90.10;;;;;;5053702;28;20477;-77
2020/12/01 11:29:14;;;;;;;69.68;29.48;;;3.80;90.10;;;;;;5053503;28;20025;-77
2020/12/01 11:31:43;;;;;;;69.95;41.75;;;3.80;90.10;;;;;;5053445;28;20024;-76
2020/12/01 11:34:11;;;;;;;74.18;40.92;;;3.80;90.10;;;;;;5053634;28;20422;-77
2020/12/01 11:36:39;;;;;;;62.45;37.30;;;3.80;90.10;;;;;;5053555;28;20029;-76
2020/12/01 11:39:09;;;;;;;70.32;40.50;;;3.80;90.10;;;;;;5053268;28;20021;-77
2020/12/01 11:41:35;;;;;;;79.13;44.05;;;3.90;90.10;;;;;;5053634;28;20420;-77
2020/12/01 11:44:01;;;;;;;72.35;38.90;;;3.90;90.10;;;;;;5053479;28;20096;-76
2020/12/01 11:46:27;;;;;;;84.70;39.72;;;3.90;90.10;;;;;;5053445;28;20112;-76
2020/12/01 11:48:52;;;;;;;69.05;31.55;;;3.90;90.10;;;;;;5051819;28;20033;-76
2020/12/01 11:51:18;;;;;;;58.55;27.13;;;3.90;90.10;;;;;;5053516;28;20120;-76
2020/12/01 11:53:45;;;;;;;65.82;28.35;;;3.90;90.10;;;;;;5052873;28;20025;-77
2020/12/01 11:56:13;;;;;;;55.35;26.42;;;3.90;90.00;;;;;;5051889;28;20021;-75
2020/12/01 11:58:39;;;;;;;57.88;26.38;;;3.90;90.00;;;;;;5054711;28;20041;-78
2020/12/01 12:01:05;;;;;;;51.83;24.58;;;3.90;89.80;;;;;;5053582;28;20073;-76
2020/12/01 12:03:30;;;;;;;49.80;23.58;;;3.90;89.70;;;;;;5054505;28;20423;-75
2020/12/01 12:05:57;;;;;;;52.92;23.10;;;3.90;89.90;;;;;;5056026;28;20032;-80
2020/12/01 12:08:23;;;;;;;53.90;24.27;;;3.80;89.30;;;;;;5054808;28;20025;-80
2020/12/01 12:10:48;;;;;;;57.17;23.27;;;3.70;89.10;;;;;;5058809;28;20391;-80
2020/12/01 12:13:14;;;;;;;53.55;23.88;;;3.60;89.30;;;;;;5054929;28;20105;-79
2020/12/01 12:15:40;;;;;;;52.47;22.88;;;3.50;89.10;;;;;;5056404;28;20025;-78
2020/12/01 12:18:05;;;;;;;57.15;23.40;;;3.50;89.40;;;;;;5056386;28;20383;-80
2020/12/01 12:20:31;;;;;;;55.08;23.23;;;3.40;89.60;;;;;;5055547;28;20086;-79
2020/12/01 12:22:57;;;;;;;49.97;20.75;;;3.40;89.60;;;;;;5056603;28;20096;-81
2020/12/01 12:25:22;;;;;;;50.63;21.55;;;3.40;90.00;;;;;;5053946;28;20163;-79
2020/12/01 12:27:48;;;;;;;55.38;22.60;;;3.40;90.00;;;;;;5055198;28;20032;-79
2020/12/01 12:30:14;;;;;;;56.08;22.30;;;3.40;90.00;;;;;;5054158;28;20056;-78
2020/12/01 12:32:40;;;;;;;52.67;21.05;;;3.30;89.70;;;;;;5053092;28;20032;-78
2020/12/01 12:35:06;;;;;;;50.15;22.02;;;3.30;90.00;;;;;;5052760;28;20383;-79
2020/12/01 12:37:32;;;;;;;53.15;21.73;;;3.30;90.10;;;;;;5053415;28;20067;-78
2020/12/01 12:39:58;;;;;;;52.85;21.98;;;3.20;90.10;;;;;;5053050;28;20410;-80
2020/12/01 12:42:24;;;;;;;65.30;23.23;;;3.20;90.10;;;;;;5053100;28;20017;-80
2020/12/01 12:44:49;;;;;;;59.42;23.63;;;3.20;90.10;;;;;;5052475;28;20018;-79
2020/12/01 12:47:15;;;;;;;63.53;26.08;;;3.20;90.20;;;;;;5052994;28;20379;-79
2020/12/01 12:49:41;;;;;;;52.88;22.02;;;3.10;90.10;;;;;;5051366;28;20025;-79
2020/12/01 12:52:07;;;;;;;50.53;21.83;;;3.10;90.30;;;;;;5052715;28;20032;-78
2020/12/01 12:54:32;;;;;;;52.05;23.45;;;3.10;90.50;;;;;;5052391;28;20029;-79
2020/12/01 12:56:58;;;;;;;57.50;22.92;;;3.20;90.50;;;;;;5052734;28;20024;-80
2020/12/01 12:59:24;;;;;;;58.42;22.60;;;3.20;90.60;;;;;;5051015;28;20049;-80
2020/12/01 13:01:50;;;;;;;54.70;22.52;;;3.20;90.50;;;;;;5052719;28;20021;-79
2020/12/01 13:04:15;;;;;;;58.30;23.75;;;3.20;90.40;;;;;;5052070;28;20208;-80
2020/12/01 13:06:41;;;;;;;58.78;22.15;;;3.20;90.50;;;;;;5053177;28;20013;-78
2020/12/01 13:09:07;;;;;;;56.83;23.33;;;3.10;90.40;;;;;;5052674;28;20028;-80
2020/12/01 13:11:32;;;;;;;60.17;23.75;;;3.10;90.40;;;;;;5052344;28;20770;-79
2020/12/01 13:13:58;;;;;;;68.22;27.95;;;3.10;90.40;;;;;;5052192;28;20025;-79
2020/12/01 13:16:24;;;;;;;65.82;24.70;;;3.10;90.50;;;;;;5051967;28;20075;-79
2020/12/01 13:18:50;;;;;;;61.45;24.60;;;3.10;90.60;;;;;;5051478;28;20025;-80
2020/12/01 13:21:15;;;;;;;68.38;25.50;;;3.00;90.60;;;;;;5052003;28;20033;-80
2020/12/01 13:23:41;;;;;;;62.47;24.77;;;3.00;90.60;;;;;;5052072;28;20027;-79
2020/12/01 13:26:07;;;;;;;56.85;22.17;;;3.00;90.60;;;;;;5052034;28;20464;-80
2020/12/01 13:28:33;;;;;;;65.10;25.30;;;3.00;90.60;;;;;;5051581;28;20094;-79
2020/12/01 13:30:59;;;;;;;72.03;26.13;;;2.90;90.50;;;;;;5051536;28;20033;-77
2020/12/01 13:33:25;;;;;;;71.70;25.17;;;3.00;90.60;;;;;;5050076;28;20059;-79
2020/12/01 13:35:51;;;;;;;59.60;23.17;;;2.90;90.70;;;;;;5051052;28;20060;-78
2020/12/01 13:38:17;;;;;;;67.63;26.13;;;2.90;90.80;;;;;;5054480;28;20506;-79
2020/12/01 13:40:42;;;;;;;66.53;26.70;;;2.90;90.70;;;;;;5051105;28;20025;-78